sensor_id;sensor_type;location;lat;lon;timestamp;pressure;altitude;pressure_sealevel;temperature;humidity
71889;BME280;59762;49.998;14.858;2022-08-07T00:00:31;98134.56;;;12.63;78.68
71889;BME280;59762;49.998;14.858;2022-08-07T00:03:07;98126.13;;;12.60;78.62
71889;BME280;59762;49.998;14.858;2022-08-07T00:05:33;98124.91;;;12.56;78.17
71889;BME280;59762;49.998;14.858;2022-08-07T00:07:59;98125.53;;;12.58;78.46
71889;BME280;59762;49.998;14.858;2022-08-07T00:10:24;98127.75;;;12.61;77.11
71889;BME280;59762;49.998;14.858;2022-08-07T00:12:50;98126.13;;;12.60;78.15
71889;BME280;59762;49.998;14.858;2022-08-07T00:15:15;98120.38;;;12.63;78.07
71889;BME280;59762;49.998;14.858;2022-08-07T00:17:41;98121.59;;;12.67;78.23
71889;BME280;59762;49.998;14.858;2022-08-07T00:20:07;98127.94;;;12.73;77.14
71889;BME280;59762;49.998;14.858;2022-08-07T00:22:32;98133.69;;;12.76;77.45
71889;BME280;59762;49.998;14.858;2022-08-07T00:24:58;98130.78;;;12.78;76.92
71889;BME280;59762;49.998;14.858;2022-08-07T00:27:24;98132.66;;;12.77;76.91
71889;BME280;59762;49.998;14.858;2022-08-07T00:29:49;98121.97;;;12.77;76.92
71889;BME280;59762;49.998;14.858;2022-08-07T00:32:15;98126.66;;;12.82;76.70
71889;BME280;59762;49.998;14.858;2022-08-07T00:34:41;98128.94;;;12.85;77.33
71889;BME280;59762;49.998;14.858;2022-08-07T00:37:07;98127.47;;;12.82;77.01
71889;BME280;59762;49.998;14.858;2022-08-07T00:39:34;98124.63;;;12.84;75.18
71889;BME280;59762;49.998;14.858;2022-08-07T00:42:00;98120.25;;;12.90;75.50
71889;BME280;59762;49.998;14.858;2022-08-07T00:44:27;98116.97;;;12.87;72.96
71889;BME280;59762;49.998;14.858;2022-08-07T00:46:52;98115.34;;;12.86;72.98
71889;BME280;59762;49.998;14.858;2022-08-07T00:49:18;98120.25;;;12.90;72.97
71889;BME280;59762;49.998;14.858;2022-08-07T00:51:44;98116.78;;;12.89;74.42
71889;BME280;59762;49.998;14.858;2022-08-07T00:54:10;98117.41;;;12.84;72.45
71889;BME280;59762;49.998;14.858;2022-08-07T00:56:39;98109.59;;;12.83;70.34
71889;BME280;59762;49.998;14.858;2022-08-07T00:59:05;98117.22;;;13.18;67.78
71889;BME280;59762;49.998;14.858;2022-08-07T01:01:31;98116.88;;;13.07;68.80
71889;BME280;59762;49.998;14.858;2022-08-07T01:03:57;98108.25;;;13.05;67.90
71889;BME280;59762;49.998;14.858;2022-08-07T01:06:23;98114.03;;;13.02;69.13
71889;BME280;59762;49.998;14.858;2022-08-07T01:08:48;98109.09;;;12.99;69.66
71889;BME280;59762;49.998;14.858;2022-08-07T01:11:15;98106.25;;;12.94;69.85
71889;BME280;59762;49.998;14.858;2022-08-07T01:13:41;98106.09;;;12.89;74.35
71889;BME280;59762;49.998;14.858;2022-08-07T01:16:07;98105.69;;;12.85;74.28
71889;BME280;59762;49.998;14.858;2022-08-07T01:18:34;98106.91;;;12.83;75.82
71889;BME280;59762;49.998;14.858;2022-08-07T01:23:36;98107.59;;;12.72;71.68
71889;BME280;59762;49.998;14.858;2022-08-07T01:26:03;98102.25;;;12.72;73.53
71889;BME280;59762;49.998;14.858;2022-08-07T01:28:29;98109.63;;;12.70;73.50
71889;BME280;59762;49.998;14.858;2022-08-07T01:30:56;98104.53;;;12.61;76.85
71889;BME280;59762;49.998;14.858;2022-08-07T01:33:22;98107.81;;;12.63;76.46
71889;BME280;59762;49.998;14.858;2022-08-07T01:35:48;98105.09;;;12.70;77.01
71889;BME280;59762;49.998;14.858;2022-08-07T01:38:15;98105.09;;;12.70;76.83
71889;BME280;59762;49.998;14.858;2022-08-07T01:40:42;98101.84;;;12.68;76.24
71889;BME280;59762;49.998;14.858;2022-08-07T01:43:07;98111.09;;;12.72;75.54
71889;BME280;59762;49.998;14.858;2022-08-07T01:45:33;98108.41;;;12.66;75.41
71889;BME280;59762;49.998;14.858;2022-08-07T01:48:00;98100.66;;;12.57;75.08
71889;BME280;59762;49.998;14.858;2022-08-07T01:50:26;98121.81;;;12.52;70.76
71889;BME280;59762;49.998;14.858;2022-08-07T01:52:53;98126.75;;;12.55;72.87
71889;BME280;59762;49.998;14.858;2022-08-07T01:55:24;98130.78;;;12.13;73.70
71889;BME280;59762;49.998;14.858;2022-08-07T01:57:53;98119.91;;;11.88;75.94
71889;BME280;59762;49.998;14.858;2022-08-07T02:00:20;98119.91;;;11.88;75.46
71889;BME280;59762;49.998;14.858;2022-08-07T02:02:56;98134.47;;;11.99;73.18
71889;BME280;59762;49.998;14.858;2022-08-07T02:05:28;98131.38;;;12.15;72.77
71889;BME280;59762;49.998;14.858;2022-08-07T02:07:57;98129.09;;;12.12;75.39
71889;BME280;59762;49.998;14.858;2022-08-07T02:10:25;98132.00;;;12.10;74.99
71889;BME280;59762;49.998;14.858;2022-08-07T02:12:54;98134.06;;;12.02;73.03
71889;BME280;59762;49.998;14.858;2022-08-07T02:15:23;98136.94;;;12.00;77.07
71889;BME280;59762;49.998;14.858;2022-08-07T02:17:51;98133.22;;;11.95;74.26
71889;BME280;59762;49.998;14.858;2022-08-07T02:20:19;98122.56;;;11.95;78.22
71889;BME280;59762;49.998;14.858;2022-08-07T02:22:46;98125.03;;;11.96;79.01
71889;BME280;59762;49.998;14.858;2022-08-07T02:25:15;98119.28;;;11.93;79.11
71889;BME280;59762;49.998;14.858;2022-08-07T02:27:43;98118.03;;;11.95;79.06
71889;BME280;59762;49.998;14.858;2022-08-07T02:30:10;98123.19;;;11.97;78.03
71889;BME280;59762;49.998;14.858;2022-08-07T02:32:36;98116.63;;;11.93;78.43
71889;BME280;59762;49.998;14.858;2022-08-07T02:35:03;98119.50;;;11.91;76.92
71889;BME280;59762;49.998;14.858;2022-08-07T02:37:32;98118.28;;;11.87;77.62
71889;BME280;59762;49.998;14.858;2022-08-07T02:40:00;98116.84;;;11.91;78.09
71889;BME280;59762;49.998;14.858;2022-08-07T02:42:29;98115.19;;;11.97;75.70
71889;BME280;59762;49.998;14.858;2022-08-07T02:44:56;98117.44;;;12.00;75.59
71889;BME280;59762;49.998;14.858;2022-08-07T02:47:22;98119.25;;;11.99;72.35
71889;BME280;59762;49.998;14.858;2022-08-07T02:49:48;98106.94;;;11.98;69.62
71889;BME280;59762;49.998;14.858;2022-08-07T02:52:19;98104.47;;;12.03;68.94
71889;BME280;59762;49.998;14.858;2022-08-07T02:54:47;98106.72;;;12.06;69.09
71889;BME280;59762;49.998;14.858;2022-08-07T02:57:15;98112.69;;;12.08;67.79
71889;BME280;59762;49.998;14.858;2022-08-07T02:59:45;98108.97;;;12.16;66.64
71889;BME280;59762;49.998;14.858;2022-08-07T03:02:15;98107.53;;;12.27;66.14
71889;BME280;59762;49.998;14.858;2022-08-07T03:04:43;98115.88;;;12.44;64.58
71889;BME280;59762;49.998;14.858;2022-08-07T03:07:10;98114.69;;;12.40;65.29
71889;BME280;59762;49.998;14.858;2022-08-07T03:09:36;98112.03;;;12.33;66.76
71889;BME280;59762;49.998;14.858;2022-08-07T03:12:03;98115.31;;;12.28;67.32
71889;BME280;59762;49.998;14.858;2022-08-07T03:14:30;98117.41;;;12.20;69.12
71889;BME280;59762;49.998;14.858;2022-08-07T03:16:57;98113.53;;;12.09;70.91
71889;BME280;59762;49.998;14.858;2022-08-07T03:19:23;98116.38;;;12.07;67.27
71889;BME280;59762;49.998;14.858;2022-08-07T03:21:49;98113.50;;;12.02;67.39
71889;BME280;59762;49.998;14.858;2022-08-07T03:24:15;98118.66;;;11.97;68.78
71889;BME280;59762;49.998;14.858;2022-08-07T03:26:43;98116.19;;;11.89;72.16
71889;BME280;59762;49.998;14.858;2022-08-07T03:29:10;98120.94;;;11.87;72.94
71889;BME280;59762;49.998;14.858;2022-08-07T03:31:37;98115.97;;;11.77;73.64
71889;BME280;59762;49.998;14.858;2022-08-07T03:34:06;98112.88;;;11.67;74.61
71889;BME280;59762;49.998;14.858;2022-08-07T03:36:32;98115.34;;;11.62;75.16
71889;BME280;59762;49.998;14.858;2022-08-07T03:39:06;98115.53;;;11.54;75.45
71889;BME280;59762;49.998;14.858;2022-08-07T03:41:32;98114.91;;;11.45;73.29
71889;BME280;59762;49.998;14.858;2022-08-07T03:43:58;98115.94;;;11.51;74.00
71889;BME280;59762;49.998;14.858;2022-08-07T03:46:25;98109.81;;;11.57;75.39
71889;BME280;59762;49.998;14.858;2022-08-07T03:48:51;98104.50;;;11.83;72.73
71889;BME280;59762;49.998;14.858;2022-08-07T03:51:19;98115.09;;;12.36;70.86
71889;BME280;59762;49.998;14.858;2022-08-07T03:53:45;98108.63;;;13.09;69.53
71889;BME280;59762;49.998;14.858;2022-08-07T03:56:13;98111.56;;;13.71;65.05
71889;BME280;59762;49.998;14.858;2022-08-07T03:58:40;98115.59;;;14.48;64.74
71889;BME280;59762;49.998;14.858;2022-08-07T04:01:09;98108.72;;;14.89;62.33
71889;BME280;59762;49.998;14.858;2022-08-07T04:03:35;98117.28;;;14.98;59.47
71889;BME280;59762;49.998;14.858;2022-08-07T04:06:01;98117.09;;;15.41;58.85
71889;BME280;59762;49.998;14.858;2022-08-07T04:08:27;98110.56;;;15.49;58.87
71889;BME280;59762;49.998;14.858;2022-08-07T04:10:55;98109.31;;;14.73;58.57
71889;BME280;59762;49.998;14.858;2022-08-07T04:13:21;98109.56;;;14.53;60.31
71889;BME280;59762;49.998;14.858;2022-08-07T04:15:47;98107.13;;;14.08;61.17
71889;BME280;59762;49.998;14.858;2022-08-07T04:18:14;98117.88;;;13.76;62.73
71889;BME280;59762;49.998;14.858;2022-08-07T04:20:40;98112.56;;;13.45;62.95
71889;BME280;59762;49.998;14.858;2022-08-07T04:23:06;98121.16;;;13.53;64.46
71889;BME280;59762;49.998;14.858;2022-08-07T04:25:35;98115.78;;;13.28;64.18
71889;BME280;59762;49.998;14.858;2022-08-07T04:28:07;98123.00;;;13.14;65.44
71889;BME280;59762;49.998;14.858;2022-08-07T04:30:35;98124.75;;;13.02;63.35
71889;BME280;59762;49.998;14.858;2022-08-07T04:33:08;98132.06;;;13.13;65.33
71889;BME280;59762;49.998;14.858;2022-08-07T04:35:36;98124.22;;;13.19;66.19
71889;BME280;59762;49.998;14.858;2022-08-07T04:38:08;98126.56;;;14.22;61.67
71889;BME280;59762;49.998;14.858;2022-08-07T04:40:35;98130.31;;;15.96;56.28
71889;BME280;59762;49.998;14.858;2022-08-07T04:43:03;98138.84;;;17.15;55.06
71889;BME280;59762;49.998;14.858;2022-08-07T04:51:20;98128.34;;;19.04;50.18
71889;BME280;59762;49.998;14.858;2022-08-07T04:56:29;98137.84;;;19.88;47.05
71889;BME280;59762;49.998;14.858;2022-08-07T04:59:08;98138.28;;;19.75;47.30
71889;BME280;59762;49.998;14.858;2022-08-07T05:01:41;98130.41;;;19.73;45.94
71889;BME280;59762;49.998;14.858;2022-08-07T05:10:13;98144.91;;;20.31;46.60
71889;BME280;59762;49.998;14.858;2022-08-07T05:12:50;98143.47;;;20.19;45.91
71889;BME280;59762;49.998;14.858;2022-08-07T05:15:30;98134.81;;;20.54;45.19
71889;BME280;59762;49.998;14.858;2022-08-07T05:18:04;98151.03;;;20.54;45.80
71889;BME280;59762;49.998;14.858;2022-08-07T05:20:43;98148.59;;;19.83;44.75
71889;BME280;59762;49.998;14.858;2022-08-07T05:23:18;98149.22;;;20.59;45.02
71889;BME280;59762;49.998;14.858;2022-08-07T05:25:45;98147.09;;;20.72;45.68
71889;BME280;59762;49.998;14.858;2022-08-07T05:28:12;98161.88;;;20.16;46.54
71889;BME280;59762;49.998;14.858;2022-08-07T05:30:39;98155.56;;;20.43;45.54
71889;BME280;59762;49.998;14.858;2022-08-07T05:33:06;98158.22;;;20.33;46.79
71889;BME280;59762;49.998;14.858;2022-08-07T05:35:34;98156.31;;;20.76;45.45
71889;BME280;59762;49.998;14.858;2022-08-07T05:38:03;98157.91;;;20.72;44.01
71889;BME280;59762;49.998;14.858;2022-08-07T05:40:35;98153.50;;;20.55;45.61
71889;BME280;59762;49.998;14.858;2022-08-07T05:43:00;98153.56;;;20.65;44.80
71889;BME280;59762;49.998;14.858;2022-08-07T05:45:26;98155.81;;;20.36;44.38
71889;BME280;59762;49.998;14.858;2022-08-07T05:47:53;98154.97;;;20.78;46.91
71889;BME280;59762;49.998;14.858;2022-08-07T05:50:21;98161.47;;;20.77;47.22
71889;BME280;59762;49.998;14.858;2022-08-07T05:52:47;98164.03;;;20.14;45.12
71889;BME280;59762;49.998;14.858;2022-08-07T05:55:13;98162.81;;;20.75;45.82
71889;BME280;59762;49.998;14.858;2022-08-07T05:57:39;98159.44;;;20.15;48.33
71889;BME280;59762;49.998;14.858;2022-08-07T06:00:06;98157.50;;;20.10;44.46
71889;BME280;59762;49.998;14.858;2022-08-07T06:02:34;98157.50;;;20.10;47.23
71889;BME280;59762;49.998;14.858;2022-08-07T06:05:11;98165.88;;;20.46;44.90
71889;BME280;59762;49.998;14.858;2022-08-07T06:07:38;98171.41;;;20.66;48.33
71889;BME280;59762;49.998;14.858;2022-08-07T06:10:04;98169.56;;;20.35;47.72
71889;BME280;59762;49.998;14.858;2022-08-07T06:12:30;98159.88;;;20.02;47.34
71889;BME280;59762;49.998;14.858;2022-08-07T06:14:57;98161.78;;;20.44;47.69
71889;BME280;59762;49.998;14.858;2022-08-07T06:17:23;98162.16;;;20.20;47.28
71889;BME280;59762;49.998;14.858;2022-08-07T06:19:50;98161.19;;;19.99;47.00
71889;BME280;59762;49.998;14.858;2022-08-07T06:22:17;98162.88;;;19.51;46.52
71889;BME280;59762;49.998;14.858;2022-08-07T06:24:45;98156.31;;;18.21;48.20
71889;BME280;59762;49.998;14.858;2022-08-07T06:27:19;98157.44;;;17.17;51.22
71889;BME280;59762;49.998;14.858;2022-08-07T06:29:45;98154.25;;;16.68;53.21
71889;BME280;59762;49.998;14.858;2022-08-07T06:32:10;98151.84;;;16.43;54.79
71889;BME280;59762;49.998;14.858;2022-08-07T06:34:36;98159.66;;;16.21;54.55
71889;BME280;59762;49.998;14.858;2022-08-07T06:37:02;98160.34;;;16.05;53.50
71889;BME280;59762;49.998;14.858;2022-08-07T06:39:27;98155.75;;;15.82;55.37
71889;BME280;59762;49.998;14.858;2022-08-07T06:42:01;98150.75;;;15.97;58.30
71889;BME280;59762;49.998;14.858;2022-08-07T06:44:27;98154.59;;;16.01;54.79
71889;BME280;59762;49.998;14.858;2022-08-07T06:46:53;98155.44;;;15.90;54.15
71889;BME280;59762;49.998;14.858;2022-08-07T06:49:19;98154.81;;;15.88;54.94
71889;BME280;59762;49.998;14.858;2022-08-07T06:51:45;98161.72;;;15.96;55.15
71889;BME280;59762;49.998;14.858;2022-08-07T06:54:13;98159.63;;;15.98;56.03
71889;BME280;59762;49.998;14.858;2022-08-07T06:56:41;98156.72;;;16.11;57.64
71889;BME280;59762;49.998;14.858;2022-08-07T06:59:11;98163.38;;;16.20;57.06
71889;BME280;59762;49.998;14.858;2022-08-07T07:01:37;98158.13;;;16.37;56.59
71889;BME280;59762;49.998;14.858;2022-08-07T07:04:06;98164.22;;;16.44;56.21
71889;BME280;59762;49.998;14.858;2022-08-07T07:06:32;98160.94;;;16.42;56.27
71889;BME280;59762;49.998;14.858;2022-08-07T07:15:01;98165.28;;;16.43;56.37
71889;BME280;59762;49.998;14.858;2022-08-07T07:20:33;98169.59;;;16.32;56.90
71889;BME280;59762;49.998;14.858;2022-08-07T07:23:01;98160.56;;;16.62;56.39
71889;BME280;59762;49.998;14.858;2022-08-07T07:25:27;98154.50;;;16.55;57.21
71889;BME280;59762;49.998;14.858;2022-08-07T07:27:58;98159.16;;;16.71;58.81
71889;BME280;59762;49.998;14.858;2022-08-07T07:30:30;98157.78;;;16.80;57.65
71889;BME280;59762;49.998;14.858;2022-08-07T07:32:57;98164.66;;;16.88;56.40
71889;BME280;59762;49.998;14.858;2022-08-07T07:35:25;98158.91;;;16.96;57.13
71889;BME280;59762;49.998;14.858;2022-08-07T07:37:52;98161.25;;;16.93;54.30
71889;BME280;59762;49.998;14.858;2022-08-07T07:40:20;98148.97;;;16.85;53.35
71889;BME280;59762;49.998;14.858;2022-08-07T07:42:50;98153.78;;;16.83;55.00
71889;BME280;59762;49.998;14.858;2022-08-07T07:45:19;98158.94;;;16.84;54.45
71889;BME280;59762;49.998;14.858;2022-08-07T07:47:46;98138.38;;;16.78;54.72
71889;BME280;59762;49.998;14.858;2022-08-07T07:50:14;98146.19;;;16.92;57.31
71889;BME280;59762;49.998;14.858;2022-08-07T07:52:43;98142.50;;;17.09;56.16
71889;BME280;59762;49.998;14.858;2022-08-07T07:55:10;98148.78;;;17.15;56.60
71889;BME280;59762;49.998;14.858;2022-08-07T07:57:38;98139.31;;;17.12;55.90
71889;BME280;59762;49.998;14.858;2022-08-07T08:00:05;98148.06;;;16.91;54.93
71889;BME280;59762;49.998;14.858;2022-08-07T08:02:32;98140.28;;;17.06;57.21
71889;BME280;59762;49.998;14.858;2022-08-07T08:05:02;98144.56;;;17.19;56.21
71889;BME280;59762;49.998;14.858;2022-08-07T08:07:30;98145.38;;;17.20;56.14
71889;BME280;59762;49.998;14.858;2022-08-07T08:09:57;98149.13;;;17.19;56.09
71889;BME280;59762;49.998;14.858;2022-08-07T08:12:24;98146.28;;;16.97;56.13
71889;BME280;59762;49.998;14.858;2022-08-07T08:14:50;98150.06;;;17.12;53.99
71889;BME280;59762;49.998;14.858;2022-08-07T08:17:16;98151.66;;;17.25;57.63
71889;BME280;59762;49.998;14.858;2022-08-07T08:19:43;98142.97;;;17.35;56.16
71889;BME280;59762;49.998;14.858;2022-08-07T08:22:11;98154.69;;;17.29;56.30
71889;BME280;59762;49.998;14.858;2022-08-07T08:24:56;98143.06;;;17.40;54.75
71889;BME280;59762;49.998;14.858;2022-08-07T08:27:43;98143.69;;;17.59;57.14
71889;BME280;59762;49.998;14.858;2022-08-07T08:30:12;98140.91;;;17.71;56.57
71889;BME280;59762;49.998;14.858;2022-08-07T08:32:43;98142.94;;;17.63;56.00
71889;BME280;59762;49.998;14.858;2022-08-07T08:35:12;98134.50;;;17.43;53.20
71889;BME280;59762;49.998;14.858;2022-08-07T08:37:40;98137.53;;;17.47;55.21
71889;BME280;59762;49.998;14.858;2022-08-07T08:40:31;98135.81;;;17.40;54.90
71889;BME280;59762;49.998;14.858;2022-08-07T08:43:11;98139.88;;;17.43;55.23
71889;BME280;59762;49.998;14.858;2022-08-07T08:45:56;98142.00;;;17.41;54.89
71889;BME280;59762;49.998;14.858;2022-08-07T08:48:43;98138.63;;;17.62;55.01
71889;BME280;59762;49.998;14.858;2022-08-07T08:56:53;98145.47;;;18.15;53.94
71889;BME280;59762;49.998;14.858;2022-08-07T09:07:15;98140.25;;;18.48;54.79
71889;BME280;59762;49.998;14.858;2022-08-07T09:15:11;98129.56;;;18.36;54.14
71889;BME280;59762;49.998;14.858;2022-08-07T09:17:50;98123.94;;;18.37;48.96
71889;BME280;59762;49.998;14.858;2022-08-07T09:23:45;98124.41;;;18.51;49.87
71889;BME280;59762;49.998;14.858;2022-08-07T09:26:23;98119.63;;;18.58;49.52
71889;BME280;59762;49.998;14.858;2022-08-07T09:29:01;98116.38;;;18.56;49.72
71889;BME280;59762;49.998;14.858;2022-08-07T09:31:46;98107.84;;;18.64;51.35
71889;BME280;59762;49.998;14.858;2022-08-07T09:34:27;98110.69;;;18.97;51.44
71889;BME280;59762;49.998;14.858;2022-08-07T09:37:19;98113.66;;;18.95;49.83
71889;BME280;59762;49.998;14.858;2022-08-07T09:42:47;98107.84;;;18.64;47.69
71889;BME280;59762;49.998;14.858;2022-08-07T09:47:53;98112.91;;;19.00;47.74
71889;BME280;59762;49.998;14.858;2022-08-07T09:53:03;98097.56;;;19.32;47.50
71889;BME280;59762;49.998;14.858;2022-08-07T09:56:00;98094.75;;;19.76;47.81
71889;BME280;59762;49.998;14.858;2022-08-07T09:58:40;98093.91;;;19.44;44.18
71889;BME280;59762;49.998;14.858;2022-08-07T10:15:40;98079.56;;;18.89;49.13
71889;BME280;59762;49.998;14.858;2022-08-07T10:18:21;98071.19;;;19.12;47.03
71889;BME280;59762;49.998;14.858;2022-08-07T10:23:45;98072.59;;;19.20;43.34
71889;BME280;59762;49.998;14.858;2022-08-07T10:29:26;98063.03;;;19.61;43.55
71889;BME280;59762;49.998;14.858;2022-08-07T10:32:17;98055.72;;;19.08;43.52
71889;BME280;59762;49.998;14.858;2022-08-07T10:34:56;98059.41;;;19.24;43.81
71889;BME280;59762;49.998;14.858;2022-08-07T10:37:38;98052.06;;;19.46;46.19
71889;BME280;59762;49.998;14.858;2022-08-07T10:43:13;98037.41;;;19.69;44.56
71889;BME280;59762;49.998;14.858;2022-08-07T10:45:47;98040.13;;;19.74;42.67
71889;BME280;59762;49.998;14.858;2022-08-07T10:48:25;98041.59;;;19.87;42.97
71889;BME280;59762;49.998;14.858;2022-08-07T10:51:19;98035.00;;;19.73;43.35
71889;BME280;59762;49.998;14.858;2022-08-07T10:53:55;98041.25;;;19.78;44.12
71889;BME280;59762;49.998;14.858;2022-08-07T10:59:40;98031.81;;;19.81;43.26
71889;BME280;59762;49.998;14.858;2022-08-07T11:02:41;98023.25;;;19.94;42.19
71889;BME280;59762;49.998;14.858;2022-08-07T11:15:40;98009.59;;;19.74;40.24
71889;BME280;59762;49.998;14.858;2022-08-07T11:18:19;98001.16;;;19.65;41.64
71889;BME280;59762;49.998;14.858;2022-08-07T11:20:57;98002.88;;;19.76;40.17
71889;BME280;59762;49.998;14.858;2022-08-07T11:26:06;98004.22;;;19.79;40.52
71889;BME280;59762;49.998;14.858;2022-08-07T11:28:46;98007.03;;;19.94;42.24
71889;BME280;59762;49.998;14.858;2022-08-07T11:34:30;98002.69;;;19.88;40.62
71889;BME280;59762;49.998;14.858;2022-08-07T11:43:03;97994.13;;;20.06;40.88
71889;BME280;59762;49.998;14.858;2022-08-07T11:48:34;97977.50;;;19.82;38.90
71889;BME280;59762;49.998;14.858;2022-08-07T12:00:14;97974.94;;;20.13;39.10
71889;BME280;59762;49.998;14.858;2022-08-07T12:10:41;97958.78;;;20.23;40.68
71889;BME280;59762;49.998;14.858;2022-08-07T12:15:52;97960.47;;;20.39;41.21
71889;BME280;59762;49.998;14.858;2022-08-07T12:18:26;97958.50;;;20.20;39.57
71889;BME280;59762;49.998;14.858;2022-08-07T12:21:06;97960.09;;;20.15;38.34
71889;BME280;59762;49.998;14.858;2022-08-07T12:23:58;97962.81;;;20.15;39.22
71889;BME280;59762;49.998;14.858;2022-08-07T12:26:40;97959.31;;;20.20;40.30
71889;BME280;59762;49.998;14.858;2022-08-07T12:29:25;97959.34;;;20.35;42.81
71889;BME280;59762;49.998;14.858;2022-08-07T12:32:13;97954.56;;;20.48;40.69
71889;BME280;59762;49.998;14.858;2022-08-07T12:34:43;97951.13;;;20.68;40.42
71889;BME280;59762;49.998;14.858;2022-08-07T12:37:11;97942.66;;;20.54;39.03
71889;BME280;59762;49.998;14.858;2022-08-07T12:39:39;97948.34;;;20.52;39.87
71889;BME280;59762;49.998;14.858;2022-08-07T12:42:07;97947.50;;;20.41;41.05
71889;BME280;59762;49.998;14.858;2022-08-07T12:44:37;97944.31;;;20.55;40.89
71889;BME280;59762;49.998;14.858;2022-08-07T12:52:37;97939.91;;;20.44;40.02
71889;BME280;59762;49.998;14.858;2022-08-07T12:55:20;97934.31;;;20.60;42.81
71889;BME280;59762;49.998;14.858;2022-08-07T12:57:47;97928.66;;;20.77;39.64
71889;BME280;59762;49.998;14.858;2022-08-07T13:00:14;97927.56;;;20.73;38.88
71889;BME280;59762;49.998;14.858;2022-08-07T13:14:30;97919.22;;;20.90;41.85
71889;BME280;59762;49.998;14.858;2022-08-07T13:17:08;97909.72;;;20.72;40.59
71889;BME280;59762;49.998;14.858;2022-08-07T13:19:51;97909.13;;;20.55;39.99
71889;BME280;59762;49.998;14.858;2022-08-07T13:22:28;97913.75;;;20.54;38.26
71889;BME280;59762;49.998;14.858;2022-08-07T13:25:03;97905.06;;;20.62;41.06
71889;BME280;59762;49.998;14.858;2022-08-07T13:27:36;97902.41;;;20.73;41.64
71889;BME280;59762;49.998;14.858;2022-08-07T13:30:06;97907.00;;;20.77;39.09
71889;BME280;59762;49.998;14.858;2022-08-07T13:32:56;97909.97;;;20.76;39.26
71889;BME280;59762;49.998;14.858;2022-08-07T13:35:35;97903.44;;;20.61;41.14
71889;BME280;59762;49.998;14.858;2022-08-07T13:38:23;97900.22;;;20.75;38.34
71889;BME280;59762;49.998;14.858;2022-08-07T13:41:03;97895.34;;;20.61;37.11
71889;BME280;59762;49.998;14.858;2022-08-07T13:43:32;97893.47;;;20.82;40.04
71889;BME280;59762;49.998;14.858;2022-08-07T13:46:00;97885.63;;;20.86;39.01
71889;BME280;59762;49.998;14.858;2022-08-07T13:48:31;97887.53;;;20.96;40.25
71889;BME280;59762;49.998;14.858;2022-08-07T13:50:58;97885.91;;;21.00;39.63
71889;BME280;59762;49.998;14.858;2022-08-07T13:53:30;97887.25;;;21.07;39.58
71889;BME280;59762;49.998;14.858;2022-08-07T13:55:58;97879.94;;;20.87;37.31
71889;BME280;59762;49.998;14.858;2022-08-07T13:58:25;97883.44;;;20.83;38.50
71889;BME280;59762;49.998;14.858;2022-08-07T14:01:15;97878.31;;;20.86;38.02
71889;BME280;59762;49.998;14.858;2022-08-07T14:03:42;97879.66;;;20.74;36.97
71889;BME280;59762;49.998;14.858;2022-08-07T14:06:09;97879.66;;;20.74;38.74
71889;BME280;59762;49.998;14.858;2022-08-07T14:08:42;97871.00;;;20.87;37.74
71889;BME280;59762;49.998;14.858;2022-08-07T14:11:12;97871.25;;;20.80;39.46
71889;BME280;59762;49.998;14.858;2022-08-07T14:13:40;97872.63;;;20.68;39.56
71889;BME280;59762;49.998;14.858;2022-08-07T14:16:12;97873.16;;;20.80;40.73
71889;BME280;59762;49.998;14.858;2022-08-07T14:18:44;97867.75;;;20.85;38.37
71889;BME280;59762;49.998;14.858;2022-08-07T14:21:12;97876.41;;;20.97;37.16
71889;BME280;59762;49.998;14.858;2022-08-07T14:23:44;97867.47;;;20.97;36.19
71889;BME280;59762;49.998;14.858;2022-08-07T14:26:13;97867.75;;;20.90;34.93
71889;BME280;59762;49.998;14.858;2022-08-07T14:28:43;97856.09;;;21.05;35.90
71889;BME280;59762;49.998;14.858;2022-08-07T14:31:11;97856.91;;;21.00;37.40
71889;BME280;59762;49.998;14.858;2022-08-07T14:33:38;97853.13;;;21.06;35.89
71889;BME280;59762;49.998;14.858;2022-08-07T14:36:04;97856.63;;;21.17;36.94
71889;BME280;59762;49.998;14.858;2022-08-07T14:38:32;97854.75;;;21.12;38.09
71889;BME280;59762;49.998;14.858;2022-08-07T14:41:01;97855.28;;;20.89;38.79
71889;BME280;59762;49.998;14.858;2022-08-07T14:43:28;97853.13;;;20.55;39.45
71889;BME280;59762;49.998;14.858;2022-08-07T14:45:56;97861.81;;;20.68;37.85
71889;BME280;59762;49.998;14.858;2022-08-07T14:48:29;97853.13;;;20.60;39.06
71889;BME280;59762;49.998;14.858;2022-08-07T14:50:58;97856.84;;;20.44;39.90
71889;BME280;59762;49.998;14.858;2022-08-07T14:53:27;97854.75;;;20.56;39.04
71889;BME280;59762;49.998;14.858;2022-08-07T14:55:55;97847.72;;;20.55;38.46
71889;BME280;59762;49.998;14.858;2022-08-07T14:58:28;97852.03;;;20.51;38.30
71889;BME280;59762;49.998;14.858;2022-08-07T15:00:57;97846.03;;;20.39;38.08
71889;BME280;59762;49.998;14.858;2022-08-07T15:03:25;97847.66;;;20.45;39.77
71889;BME280;59762;49.998;14.858;2022-08-07T15:05:52;97855.31;;;20.63;38.27
71889;BME280;59762;49.998;14.858;2022-08-07T15:08:39;97847.72;;;20.86;37.47
71889;BME280;59762;49.998;14.858;2022-08-07T15:11:09;97849.06;;;20.78;37.58
71889;BME280;59762;49.998;14.858;2022-08-07T15:13:51;97842.28;;;20.96;37.93
71889;BME280;59762;49.998;14.858;2022-08-07T15:16:23;97844.47;;;20.94;36.44
71889;BME280;59762;49.998;14.858;2022-08-07T15:18:54;97834.72;;;20.83;35.96
71889;BME280;59762;49.998;14.858;2022-08-07T15:21:25;97838.78;;;20.50;38.55
71889;BME280;59762;49.998;14.858;2022-08-07T15:23:55;97842.00;;;20.62;38.12
71889;BME280;59762;49.998;14.858;2022-08-07T15:26:32;97842.84;;;20.68;38.98
71889;BME280;59762;49.998;14.858;2022-08-07T15:29:00;97830.94;;;20.69;36.12
71889;BME280;59762;49.998;14.858;2022-08-07T15:31:26;97835.53;;;20.83;38.05